Time,TemperatureF,DewpointF,PressureIn,WindDirection,WindDirectionDegrees,WindSpeedMPH,WindSpeedGustMPH,Humidity,HourlyPrecipIn,Conditions,Clouds,dailyrainin,SoftwareType,DateUTC
2013-04-11 00:00:00,40.5,39.4,29.98,North,352,4.0,4.0,96,0.00,,,0.00,Wunderground v.1.15,2013-04-11 04:00:00,
2013-04-11 00:05:00,40.4,39.4,29.98,NE,49,4.0,6.0,96,0.00,,,0.00,Wunderground v.1.15,2013-04-11 04:05:00,
2013-04-11 00:15:00,40.4,39.4,29.99,NNE,23,4.0,4.0,96,0.00,,,0.00,Wunderground v.1.15,2013-04-11 04:15:00,
2013-04-11 00:20:00,40.5,39.4,30.00,ENE,60,3.0,3.0,96,0.00,,,0.00,Wunderground v.1.15,2013-04-11 04:20:00,
2013-04-11 00:25:00,40.5,39.4,30.03,North,352,3.0,3.0,96,0.00,,,0.00,Wunderground v.1.15,2013-04-11 04:25:00,
2013-04-11 00:35:00,40.5,39.4,30.02,East,80,2.0,2.0,96,0.00,,,0.00,Wunderground v.1.15,2013-04-11 04:35:00,
2013-04-11 00:45:00,40.3,39.3,29.97,East,96,5.0,7.0,96,0.00,,,0.00,Wunderground v.1.15,2013-04-11 04:45:00,
2013-04-11 00:55:00,40.1,39.1,29.98,NE,47,4.0,5.0,96,0.00,,,0.00,Wunderground v.1.15,2013-04-11 04:55:00,
2013-04-11 01:00:00,40.1,39.1,29.96,NE,53,4.0,6.0,96,0.00,,,0.00,Wunderground v.1.15,2013-04-11 05:00:00,
2013-04-11 01:10:00,40.1,39.1,29.96,NNE,29,5.0,6.0,96,0.00,,,0.00,Wunderground v.1.15,2013-04-11 05:10:00,
2013-04-11 01:15:00,40.0,39.0,29.94,ENE,65,5.0,6.0,96,0.00,,,0.00,Wunderground v.1.15,2013-04-11 05:15:00,
2013-04-11 01:25:00,40.1,39.1,29.97,ENE,76,4.0,5.0,96,0.00,,,0.00,Wunderground v.1.15,2013-04-11 05:25:00,
2013-04-11 01:35:00,40.1,39.1,29.97,ENE,66,4.0,4.0,96,0.00,,,0.00,Wunderground v.1.15,2013-04-11 05:35:00,
2013-04-11 01:45:00,40.1,39.1,29.97,NE,46,4.0,4.0,96,0.00,,,0.00,Wunderground v.1.15,2013-04-11 05:45:00,
2013-04-11 01:50:00,40.0,39.0,29.96,NE,44,4.0,5.0,96,0.00,,,0.00,Wunderground v.1.15,2013-04-11 05:50:00,
2013-04-11 02:00:00,39.9,38.9,29.95,NNE,27,5.0,5.0,96,0.00,,,0.01,Wunderground v.1.15,2013-04-11 06:00:00,
2013-04-11 02:10:00,39.9,38.9,29.95,NE,54,5.0,5.0,96,0.00,,,0.01,Wunderground v.1.15,2013-04-11 06:10:00,
2013-04-11 02:20:00,40.1,39.1,29.99,NNE,25,4.0,4.0,96,0.00,,,0.01,Wunderground v.1.15,2013-04-11 06:20:00,
2013-04-11 02:30:00,40.3,39.3,30.00,SE,134,2.0,2.0,96,0.20,,,0.04,Wunderground v.1.15,2013-04-11 06:30:00,
2013-04-11 02:35:00,40.3,39.3,29.99,NNW,341,1.0,2.0,96,0.13,,,0.05,Wunderground v.1.15,2013-04-11 06:35:00,
2013-04-11 02:45:00,40.4,39.4,29.99,NE,51,2.0,6.0,96,0.05,,,0.05,Wunderground v.1.15,2013-04-11 06:45:00,
2013-04-11 02:50:00,40.4,39.4,29.96,NNW,341,3.0,5.0,96,0.05,,,0.06,Wunderground v.1.15,2013-04-11 06:50:00,
2013-04-11 03:00:00,40.4,39.4,29.97,NE,49,3.0,4.0,96,0.07,,,0.07,Wunderground v.1.15,2013-04-11 07:00:00,
2013-04-11 03:10:00,40.4,39.4,29.94,ENE,71,2.0,5.0,96,0.41,,,0.10,Wunderground v.1.15,2013-04-11 07:10:00,
2013-04-11 03:20:00,40.3,39.3,29.91,ESE,110,5.0,5.0,96,0.29,,,0.15,Wunderground v.1.15,2013-04-11 07:20:00,
2013-04-11 07:10:00,39.6,38.0,29.92,ENE,69,6.0,9.0,94,0.00,,,0.72,Wunderground v.1.15,2013-04-11 11:10:00,
2013-04-11 07:20:00,39.5,37.9,29.93,NNE,30,7.0,7.0,94,0.00,,,0.72,Wunderground v.1.15,2013-04-11 11:20:00,
2013-04-11 07:30:00,39.3,37.7,29.93,ENE,57,7.0,7.0,94,0.00,,,0.72,Wunderground v.1.15,2013-04-11 11:30:00,
2013-04-11 07:35:00,39.3,37.7,29.93,ENE,60,8.0,8.0,94,0.00,,,0.72,Wunderground v.1.15,2013-04-11 11:35:00,
2013-04-11 07:45:00,39.3,37.7,29.93,NE,36,7.0,8.0,94,0.00,,,0.72,Wunderground v.1.15,2013-04-11 11:45:00,
2013-04-11 07:50:00,39.4,37.5,29.95,NE,45,6.0,6.0,93,0.00,,,0.72,Wunderground v.1.15,2013-04-11 11:50:00,
2013-04-11 08:00:00,39.5,37.6,29.96,ENE,75,4.0,7.0,93,0.00,,,0.72,Wunderground v.1.15,2013-04-11 12:00:00,
2013-04-11 08:10:00,39.5,37.6,29.96,NNE,27,4.0,4.0,93,0.00,,,0.72,Wunderground v.1.15,2013-04-11 12:10:00,
2013-04-11 08:15:00,39.5,37.6,29.97,ENE,70,4.0,5.0,93,0.00,,,0.72,Wunderground v.1.15,2013-04-11 12:15:00,
2013-04-11 08:25:00,39.3,37.4,29.95,North,7,6.0,6.0,93,0.00,,,0.72,Wunderground v.1.15,2013-04-11 12:25:00,
2013-04-11 08:35:00,39.2,37.3,29.96,NE,54,5.0,11.0,93,0.00,,,0.72,Wunderground v.1.15,2013-04-11 12:35:00,
2013-04-11 08:40:00,39.2,37.1,29.95,NW,319,6.0,6.0,92,0.00,,,0.72,Wunderground v.1.15,2013-04-11 12:40:00,
2013-04-11 08:50:00,39.1,37.0,29.94,ENE,60,6.0,10.0,92,0.00,,,0.72,Wunderground v.1.15,2013-04-11 12:50:00,
2013-04-11 08:55:00,39.1,37.2,29.94,NE,54,6.0,10.0,93,0.00,,,0.72,Wunderground v.1.15,2013-04-11 12:55:00,
2013-04-11 09:00:00,39.2,37.3,29.94,ENE,59,5.0,7.0,93,0.00,,,0.72,Wunderground v.1.15,2013-04-11 13:00:00,
2013-04-11 09:05:00,39.2,37.3,29.95,ENE,63,5.0,7.0,93,0.00,,,0.72,Wunderground v.1.15,2013-04-11 13:05:00,
2013-04-11 09:15:00,39.3,37.4,29.95,NE,41,6.0,6.0,93,0.00,,,0.72,Wunderground v.1.15,2013-04-11 13:15:00,
2013-04-11 09:20:00,39.4,37.5,29.96,NE,51,5.0,8.0,93,0.00,,,0.72,Wunderground v.1.15,2013-04-11 13:20:00,
2013-04-11 09:30:00,39.4,37.3,29.97,East,87,6.0,6.0,92,0.00,,,0.72,Wunderground v.1.15,2013-04-11 13:30:00,
2013-04-11 09:40:00,39.5,37.4,29.95,ENE,71,6.0,7.0,92,0.00,,,0.72,Wunderground v.1.15,2013-04-11 13:40:00,
2013-04-11 09:45:00,39.5,37.4,29.95,ENE,58,6.0,7.0,92,0.00,,,0.72,Wunderground v.1.15,2013-04-11 13:45:00,
2013-04-11 09:55:00,39.5,37.4,29.94,NE,52,6.0,6.0,92,0.00,,,0.72,Wunderground v.1.15,2013-04-11 13:55:00,
2013-04-11 10:00:00,39.5,37.4,29.95,East,99,5.0,7.0,92,0.00,,,0.72,Wunderground v.1.15,2013-04-11 14:00:00,
2013-04-11 10:10:00,39.5,37.4,29.96,ENE,62,6.0,6.0,92,0.00,,,0.72,Wunderground v.1.15,2013-04-11 14:10:00,
2013-04-11 10:20:00,39.4,37.3,29.94,NE,44,7.0,7.0,92,0.00,,,0.72,Wunderground v.1.15,2013-04-11 14:20:00,
2013-04-11 10:25:00,39.3,37.2,29.93,East,84,7.0,11.0,92,0.00,,,0.72,Wunderground v.1.15,2013-04-11 14:25:00,
2013-04-11 10:35:00,39.2,37.3,29.93,ENE,68,7.0,10.0,93,0.00,,,0.72,Wunderground v.1.15,2013-04-11 14:35:00,
2013-04-11 10:40:00,39.2,37.3,29.93,NE,49,7.0,7.0,93,0.00,,,0.72,Wunderground v.1.15,2013-04-11 14:40:00,
2013-04-11 10:50:00,39.0,37.1,29.92,ENE,62,7.0,7.0,93,0.00,,,0.72,Wunderground v.1.15,2013-04-11 14:50:00,
2013-04-11 10:55:00,38.9,37.0,29.92,NE,37,8.0,8.0,93,0.00,,,0.72,Wunderground v.1.15,2013-04-11 14:55:00,
2013-04-11 11:00:00,38.9,37.0,29.92,East,96,7.0,7.0,93,0.00,,,0.72,Wunderground v.1.15,2013-04-11 15:00:00,
2013-04-11 11:10:00,39.0,37.4,29.95,NE,37,5.0,5.0,94,0.00,,,0.72,Wunderground v.1.15,2013-04-11 15:10:00,
2013-04-11 11:20:00,38.8,36.9,29.94,NE,41,6.0,12.0,93,0.00,,,0.72,Wunderground v.1.15,2013-04-11 15:20:00,
2013-04-11 11:30:00,38.8,36.7,29.95,ENE,65,7.0,7.0,92,0.00,,,0.72,Wunderground v.1.15,2013-04-11 15:30:00,
2013-04-11 11:40:00,38.7,36.6,29.94,East,83,7.0,9.0,92,0.00,,,0.72,Wunderground v.1.15,2013-04-11 15:40:00,
2013-04-11 11:50:00,38.6,36.5,29.93,NE,56,7.0,11.0,92,0.00,,,0.72,Wunderground v.1.15,2013-04-11 15:50:00,
2013-04-11 11:55:00,38.5,36.4,29.94,NE,36,7.0,12.0,92,0.00,,,0.72,Wunderground v.1.15,2013-04-11 15:55:00,
2013-04-11 12:00:00,38.5,36.4,29.93,ENE,65,8.0,12.0,92,0.00,,,0.72,Wunderground v.1.15,2013-04-11 16:00:00,
2013-04-11 12:10:00,38.5,36.4,29.93,ESE,120,7.0,7.0,92,0.00,,,0.72,Wunderground v.1.15,2013-04-11 16:10:00,
2013-04-11 12:20:00,38.3,36.2,29.93,ENE,72,7.0,10.0,92,0.00,,,0.72,Wunderground v.1.15,2013-04-11 16:20:00,
2013-04-11 12:25:00,38.1,36.3,29.94,NNE,29,6.0,10.0,93,0.00,,,0.72,Wunderground v.1.15,2013-04-11 16:25:00,
2013-04-11 12:35:00,37.9,36.1,29.93,ENE,66,5.0,7.0,93,0.00,,,0.72,Wunderground v.1.15,2013-04-11 16:35:00,
2013-04-11 12:40:00,37.9,36.1,29.93,NE,38,6.0,10.0,93,0.00,,,0.72,Wunderground v.1.15,2013-04-11 16:40:00,
2013-04-11 12:50:00,37.7,35.9,29.92,NE,34,7.0,7.0,93,0.00,,,0.72,Wunderground v.1.15,2013-04-11 16:50:00,
2013-04-11 13:00:00,37.6,35.8,29.93,East,96,6.0,11.0,93,0.00,,,0.72,Wunderground v.1.15,2013-04-11 17:00:00,
2013-04-11 13:10:00,37.1,35.3,29.93,ENE,69,6.0,7.0,93,0.00,,,0.72,Wunderground v.1.15,2013-04-11 17:10:00,
2013-04-11 13:20:00,37.0,35.2,29.92,ENE,68,6.0,6.0,93,0.00,,,0.72,Wunderground v.1.15,2013-04-11 17:20:00,
2013-04-11 13:25:00,36.9,35.1,29.91,ENE,60,6.0,8.0,93,0.00,,,0.72,Wunderground v.1.15,2013-04-11 17:25:00,
2013-04-11 13:35:00,36.7,34.9,29.93,NNE,27,7.0,7.0,93,0.00,,,0.72,Wunderground v.1.15,2013-04-11 17:35:00,
2013-04-11 13:40:00,36.7,34.9,29.94,ENE,66,6.0,6.0,93,0.00,,,0.72,Wunderground v.1.15,2013-04-11 17:40:00,
2013-04-11 13:50:00,36.8,35.0,29.94,NNW,335,5.0,6.0,93,0.00,,,0.72,Wunderground v.1.15,2013-04-11 17:50:00,
2013-04-11 14:00:00,36.7,34.6,29.94,NE,41,8.0,8.0,92,0.00,,,0.72,Wunderground v.1.15,2013-04-11 18:00:00,
2013-04-11 14:05:00,36.8,35.0,29.94,NNE,30,7.0,12.0,93,0.00,,,0.72,Wunderground v.1.15,2013-04-11 18:05:00,
2013-04-11 14:15:00,37.0,34.9,29.94,NE,39,6.0,8.0,92,0.00,,,0.72,Wunderground v.1.15,2013-04-11 18:15:00,
2013-04-11 14:20:00,37.1,35.0,29.93,East,91,6.0,6.0,92,0.00,,,0.72,Wunderground v.1.15,2013-04-11 18:20:00,
2013-04-11 14:30:00,37.0,34.9,29.93,ENE,70,7.0,7.0,92,0.00,,,0.72,Wunderground v.1.15,2013-04-11 18:30:00,
2013-04-11 14:40:00,37.1,35.0,29.92,NE,36,6.0,6.0,92,0.00,,,0.72,Wunderground v.1.15,2013-04-11 18:40:00,
2013-04-11 14:50:00,37.1,35.0,29.91,ENE,57,6.0,9.0,92,0.00,,,0.73,Wunderground v.1.15,2013-04-11 18:50:00,
2013-04-11 15:00:00,37.2,35.1,29.90,ENE,64,7.0,7.0,92,0.00,,,0.73,Wunderground v.1.15,2013-04-11 19:00:00,
2013-04-11 15:05:00,37.4,35.0,29.90,East,79,7.0,10.0,91,0.00,,,0.73,Wunderground v.1.15,2013-04-11 19:05:00,
2013-04-11 15:15:00,37.6,35.5,29.90,ENE,58,6.0,9.0,92,0.00,,,0.73,Wunderground v.1.15,2013-04-11 19:15:00,
2013-04-11 15:20:00,37.7,35.3,29.89,ENE,73,6.0,6.0,91,0.00,,,0.73,Wunderground v.1.15,2013-04-11 19:20:00,
2013-04-11 15:30:00,37.7,35.3,29.89,NE,54,7.0,7.0,91,0.00,,,0.73,Wunderground v.1.15,2013-04-11 19:30:00,
2013-04-11 15:35:00,37.7,35.3,29.89,ENE,64,8.0,9.0,91,0.00,,,0.73,Wunderground v.1.15,2013-04-11 19:35:00,
2013-04-11 15:45:00,37.7,35.3,29.88,ENE,64,8.0,11.0,91,0.00,,,0.73,Wunderground v.1.15,2013-04-11 19:45:00,
2013-04-11 15:55:00,37.7,35.0,29.87,ENE,69,8.0,14.0,90,0.00,,,0.73,Wunderground v.1.15,2013-04-11 19:55:00,
2013-04-11 16:00:00,37.7,35.3,29.87,ENE,74,9.0,10.0,91,0.00,,,0.73,Wunderground v.1.15,2013-04-11 20:00:00,
2013-04-11 16:10:00,37.5,35.1,29.87,ESE,105,9.0,9.0,91,0.00,,,0.73,Wunderground v.1.15,2013-04-11 20:10:00,
2013-04-11 16:20:00,37.5,35.1,29.87,NE,54,8.0,8.0,91,0.00,,,0.73,Wunderground v.1.15,2013-04-11 20:20:00,
2013-04-11 16:30:00,37.5,35.4,29.87,ENE,67,8.0,13.0,92,0.00,,,0.73,Wunderground v.1.15,2013-04-11 20:30:00,
2013-04-11 16:40:00,37.5,35.4,29.87,East,86,9.0,9.0,92,0.00,,,0.73,Wunderground v.1.15,2013-04-11 20:40:00,
2013-04-11 16:45:00,37.5,35.4,29.86,ENE,65,6.0,9.0,92,0.00,,,0.73,Wunderground v.1.15,2013-04-11 20:45:00,
2013-04-11 16:55:00,37.3,35.2,29.87,NE,46,6.0,8.0,92,0.00,,,0.73,Wunderground v.1.15,2013-04-11 20:55:00,
2013-04-11 17:00:00,37.3,35.2,29.86,NE,47,6.0,6.0,92,0.00,,,0.73,Wunderground v.1.15,2013-04-11 21:00:00,
2013-04-11 17:10:00,37.1,35.3,29.86,ENE,58,8.0,8.0,93,0.00,,,0.73,Wunderground v.1.15,2013-04-11 21:10:00,
2013-04-11 17:15:00,37.2,35.4,29.85,ESE,107,6.0,8.0,93,0.00,,,0.73,Wunderground v.1.15,2013-04-11 21:15:00,
2013-04-11 17:25:00,37.2,35.6,29.85,ESE,110,8.0,8.0,94,0.00,,,0.73,Wunderground v.1.15,2013-04-11 21:25:00,
2013-04-11 17:35:00,37.2,35.6,29.84,ENE,57,5.0,9.0,94,0.00,,,0.74,Wunderground v.1.15,2013-04-11 21:35:00,
2013-04-11 17:45:00,37.2,35.6,29.85,East,82,6.0,6.0,94,0.00,,,0.74,Wunderground v.1.15,2013-04-11 21:45:00,
2013-04-11 17:50:00,37.2,35.6,29.85,NE,49,6.0,6.0,94,0.00,,,0.75,Wunderground v.1.15,2013-04-11 21:50:00,
2013-04-11 18:00:00,37.2,35.6,29.85,East,82,5.0,6.0,94,0.00,,,0.75,Wunderground v.1.15,2013-04-11 22:00:00,
2013-04-11 18:10:00,37.2,35.6,29.84,ENE,77,5.0,5.0,94,0.04,,,0.76,Wunderground v.1.15,2013-04-11 22:10:00,
2013-04-11 18:20:00,37.2,35.6,29.84,ENE,61,7.0,7.0,94,0.00,,,0.76,Wunderground v.1.15,2013-04-11 22:20:00,
2013-04-11 18:30:00,37.3,36.0,29.83,ENE,57,5.0,6.0,95,0.00,,,0.77,Wunderground v.1.15,2013-04-11 22:30:00,
2013-04-11 18:35:00,37.3,36.0,29.83,ENE,60,5.0,7.0,95,0.00,,,0.77,Wunderground v.1.15,2013-04-11 22:35:00,
2013-04-11 18:45:00,37.3,35.7,29.83,ENE,65,7.0,7.0,94,0.00,,,0.77,Wunderground v.1.15,2013-04-11 22:45:00,
2013-04-11 18:55:00,37.3,36.0,29.82,ENE,72,7.0,18.0,95,0.00,,,0.78,Wunderground v.1.15,2013-04-11 22:55:00,
2013-04-11 19:00:00,37.3,36.0,29.81,ENE,73,7.0,8.0,95,0.00,,,0.78,Wunderground v.1.15,2013-04-11 23:00:00,
2013-04-11 19:10:00,37.3,36.0,29.81,ENE,70,7.0,7.0,95,0.04,,,0.79,Wunderground v.1.15,2013-04-11 23:10:00,
2013-04-11 19:15:00,37.3,36.0,29.80,East,96,7.0,7.0,95,0.04,,,0.79,Wunderground v.1.15,2013-04-11 23:15:00,
2013-04-11 19:25:00,37.3,36.0,29.80,ENE,73,5.0,6.0,95,0.05,,,0.80,Wunderground v.1.15,2013-04-11 23:25:00,
2013-04-11 19:35:00,37.3,36.0,29.80,ENE,75,6.0,6.0,95,0.04,,,0.81,Wunderground v.1.15,2013-04-11 23:35:00,
2013-04-11 19:40:00,37.3,36.0,29.80,NNE,27,5.0,8.0,95,0.04,,,0.81,Wunderground v.1.15,2013-04-11 23:40:00,
2013-04-11 19:50:00,37.3,36.0,29.79,East,94,6.0,10.0,95,0.04,,,0.81,Wunderground v.1.15,2013-04-11 23:50:00,
2013-04-11 20:00:00,37.2,35.9,29.78,NE,39,6.0,6.0,95,0.04,,,0.82,Wunderground v.1.15,2013-04-12 00:00:00,
2013-04-11 20:10:00,37.1,35.8,29.77,ENE,62,4.0,8.0,95,0.00,,,0.83,Wunderground v.1.15,2013-04-12 00:10:00,
2013-04-11 20:15:00,37.1,35.8,29.78,NE,49,5.0,8.0,95,0.00,,,0.83,Wunderground v.1.15,2013-04-12 00:15:00,
2013-04-11 20:25:00,37.0,35.7,29.77,NNE,14,4.0,6.0,95,0.05,,,0.84,Wunderground v.1.15,2013-04-12 00:25:00,
2013-04-11 20:30:00,36.9,35.6,29.77,NE,34,5.0,5.0,95,0.05,,,0.84,Wunderground v.1.15,2013-04-12 00:30:00,
2013-04-11 20:40:00,36.9,35.6,29.77,North,8,4.0,5.0,95,0.05,,,0.85,Wunderground v.1.15,2013-04-12 00:40:00,
2013-04-11 20:50:00,36.8,35.5,29.77,ENE,63,3.0,3.0,95,0.06,,,0.86,Wunderground v.1.15,2013-04-12 00:50:00,
2013-04-11 20:55:00,36.8,35.5,29.77,NNE,26,4.0,4.0,95,0.11,,,0.87,Wunderground v.1.15,2013-04-12 00:55:00,
2013-04-11 21:00:00,36.8,35.5,29.77,NNE,25,4.0,4.0,95,0.08,,,0.88,Wunderground v.1.15,2013-04-12 01:00:00,
2013-04-11 21:10:00,36.7,35.4,29.77,NE,42,5.0,7.0,95,0.09,,,0.90,Wunderground v.1.15,2013-04-12 01:10:00,
2013-04-11 21:15:00,36.7,35.4,29.77,ENE,75,5.0,7.0,95,0.10,,,0.91,Wunderground v.1.15,2013-04-12 01:15:00,
2013-04-11 21:25:00,36.7,35.4,29.76,NE,54,4.0,6.0,95,0.09,,,0.92,Wunderground v.1.15,2013-04-12 01:25:00,
2013-04-11 21:30:00,36.7,35.4,29.77,NE,39,4.0,4.0,95,0.10,,,0.93,Wunderground v.1.15,2013-04-12 01:30:00,
2013-04-11 21:40:00,36.7,35.4,29.76,NE,38,4.0,4.0,95,0.15,,,0.95,Wunderground v.1.15,2013-04-12 01:40:00,
2013-04-11 21:45:00,36.6,35.3,29.76,NE,53,4.0,6.0,95,0.13,,,0.96,Wunderground v.1.15,2013-04-12 01:45:00,
2013-04-11 21:55:00,36.6,35.3,29.77,ENE,59,5.0,6.0,95,0.13,,,0.98,Wunderground v.1.15,2013-04-12 01:55:00,
2013-04-11 22:00:00,36.7,35.4,29.76,ENE,72,5.0,5.0,95,0.15,,,1.00,Wunderground v.1.15,2013-04-12 02:00:00,
2013-04-11 22:10:00,36.8,35.8,29.76,NNE,22,5.0,5.0,96,0.16,,,1.02,Wunderground v.1.15,2013-04-12 02:10:00,
2013-04-11 22:15:00,36.7,35.7,29.75,ENE,69,3.0,5.0,96,0.13,,,1.03,Wunderground v.1.15,2013-04-12 02:15:00,
2013-04-11 22:25:00,36.8,35.8,29.74,NE,51,4.0,10.0,96,0.12,,,1.05,Wunderground v.1.15,2013-04-12 02:25:00,
2013-04-11 22:30:00,36.8,35.8,29.74,NE,39,5.0,5.0,96,0.15,,,1.07,Wunderground v.1.15,2013-04-12 02:30:00,
2013-04-11 22:40:00,36.8,35.8,29.74,ENE,60,5.0,5.0,96,0.08,,,1.08,Wunderground v.1.15,2013-04-12 02:40:00,
2013-04-11 22:45:00,36.8,35.8,29.73,NE,53,5.0,5.0,96,0.09,,,1.09,Wunderground v.1.15,2013-04-12 02:45:00,
2013-04-11 22:55:00,36.8,35.8,29.72,ENE,61,5.0,5.0,96,0.18,,,1.11,Wunderground v.1.15,2013-04-12 02:55:00,
2013-04-11 23:00:00,36.9,35.9,29.71,ENE,77,5.0,5.0,96,0.14,,,1.13,Wunderground v.1.15,2013-04-12 03:00:00,
2013-04-11 23:10:00,37.0,36.0,29.70,ENE,60,6.0,8.0,96,0.10,,,1.14,Wunderground v.1.15,2013-04-12 03:10:00,
2013-04-11 23:15:00,37.1,35.8,29.69,NE,53,7.0,8.0,95,0.09,,,1.15,Wunderground v.1.15,2013-04-12 03:15:00,
2013-04-11 23:25:00,37.1,35.8,29.67,East,91,7.0,10.0,95,0.08,,,1.16,Wunderground v.1.15,2013-04-12 03:25:00,
2013-04-11 23:35:00,37.1,35.8,29.68,NE,54,6.0,8.0,95,0.21,,,1.19,Wunderground v.1.15,2013-04-12 03:35:00,
2013-04-11 23:40:00,37.1,35.8,29.68,NE,56,7.0,7.0,95,0.19,,,1.21,Wunderground v.1.15,2013-04-12 03:40:00,
2013-04-11 23:50:00,37.3,36.3,29.66,East,79,6.0,6.0,96,0.06,,,1.21,Wunderground v.1.15,2013-04-12 03:50:00,
2013-04-11 23:55:00,37.4,36.4,29.67,ENE,70,7.0,7.0,96,0.04,,,1.22,Wunderground v.1.15,2013-04-12 03:55:00,